Time;durP1;ratioP1;P1;durP2;ratioP2;P2;SDS_P1;SDS_P2;PMS_P1;PMS_P2;Temp;Humidity;BMP_temperature;BMP_pressure;BME280_temperature;BME280_humidity;BME280_pressure;Samples;Min_cycle;Max_cycle;Signal;HPM_P1;HPM_P2
2022/11/27 00:01:19;;;;;;;0.00;0.00;;;;;;;;;;4976558;28;20225;-79
2022/11/27 00:03:48;;;;;;;0.00;0.00;;;;;;;;;;4969852;28;20257;-79
2022/11/27 00:06:19;;;;;;;0.00;0.00;;;;;;;;;;4996027;28;20234;-78
2022/11/27 00:08:50;;;;;;;0.00;0.00;;;;;;;;;;4997178;28;20205;-79
2022/11/27 00:11:19;;;;;;;0.00;0.00;;;;;;;;;;5001032;28;20279;-79
2022/11/27 00:13:49;;;;;;;0.00;0.00;;;;;;;;;;4989805;28;20278;-79
2022/11/27 00:16:18;;;;;;;0.00;0.00;;;;;;;;;;4985462;28;20583;-79
2022/11/27 00:18:47;;;;;;;0.00;0.00;;;;;;;;;;4984615;28;20549;-79
2022/11/27 00:21:17;;;;;;;0.00;0.00;;;;;;;;;;4985060;28;20216;-79
2022/11/27 00:23:46;;;;;;;0.00;0.00;;;;;;;;;;4980555;28;20236;-79
2022/11/27 00:26:16;;;;;;;0.00;0.00;;;;;;;;;;4966784;29;20268;-79
2022/11/27 00:28:45;;;;;;;0.00;0.00;;;;;;;;;;4966776;28;20239;-81
2022/11/27 00:31:15;;;;;;;0.00;0.00;;;;;;;;;;4966766;28;20266;-79
2022/11/27 00:33:44;;;;;;;0.00;0.00;;;;;;;;;;4998004;28;20221;-79
2022/11/27 00:36:13;;;;;;;0.00;0.00;;;;;;;;;;5007021;28;20220;-80
2022/11/27 00:38:42;;;;;;;0.00;0.00;;;;;;;;;;4996482;28;20273;-80
2022/11/27 00:41:14;;;;;;;0.00;0.00;;;;;;;;;;4992203;28;20228;-79
2022/11/27 00:43:53;;;;;;;0.07;0.07;;;;;;;;;;4988966;28;20599;-79
2022/11/27 00:49:59;;;;;;;0.00;0.00;;;;;;;;;;4970871;29;20223;-80
2022/11/27 00:52:38;;;;;;;0.00;0.00;;;;;;;;;;4971132;28;20186;-79
2022/11/27 00:55:13;;;;;;;0.00;0.00;;;;;;;;;;4974590;28;20206;-79
2022/11/27 00:58:12;;;;;;;0.00;0.00;;;;;;;;;;5011079;28;20627;-79
2022/11/27 01:10:40;;;;;;;0.00;0.00;;;;;;;;;;4988984;28;20233;-79
2022/11/27 01:13:53;;;;;;;0.00;0.00;;;;;;;;;;4987335;28;20711;-81
2022/11/27 01:23:21;;;;;;;0.10;0.10;;;;;;;;;;4986650;28;20707;-80
2022/11/27 01:32:58;;;;;;;0.00;0.00;;;;;;;;;;4984627;28;20228;-79
2022/11/27 01:49:27;;;;;;;0.00;0.00;;;;;;;;;;4963742;28;20206;-79
2022/11/27 01:52:04;;;;;;;0.00;0.00;;;;;;;;;;4958161;29;20608;-79
2022/11/27 01:54:35;;;;;;;0.00;0.00;;;;;;;;;;4979264;28;20226;-79
2022/11/27 01:57:05;;;;;;;0.00;0.00;;;;;;;;;;4978021;28;20221;-79
2022/11/27 01:59:34;;;;;;;0.00;0.00;;;;;;;;;;4980830;28;20222;-79
2022/11/27 02:02:03;;;;;;;0.00;0.00;;;;;;;;;;4979951;28;20201;-79
2022/11/27 02:04:34;;;;;;;0.00;0.00;;;;;;;;;;4979811;28;20642;-79
2022/11/27 02:07:02;;;;;;;0.00;0.00;;;;;;;;;;4980315;28;20706;-79
2022/11/27 02:09:31;;;;;;;0.00;0.00;;;;;;;;;;4980235;28;20229;-79
2022/11/27 02:12:02;;;;;;;0.00;0.00;;;;;;;;;;4978632;28;20549;-79
2022/11/27 02:14:36;;;;;;;0.00;0.00;;;;;;;;;;4979372;28;20229;-79
2022/11/27 02:17:08;;;;;;;0.00;0.00;;;;;;;;;;4978965;28;20200;-79
2022/11/27 02:19:45;;;;;;;0.00;0.00;;;;;;;;;;4978330;28;20190;-80
2022/11/27 02:22:20;;;;;;;0.00;0.00;;;;;;;;;;4978332;28;20202;-79
2022/11/27 02:24:51;;;;;;;0.00;0.00;;;;;;;;;;4978092;28;20290;-79
2022/11/27 02:27:34;;;;;;;0.00;0.00;;;;;;;;;;4978771;28;20217;-79
2022/11/27 02:30:05;;;;;;;0.00;0.00;;;;;;;;;;4979500;28;20214;-79
2022/11/27 02:32:37;;;;;;;0.03;0.03;;;;;;;;;;4980162;28;20657;-79
2022/11/27 02:35:09;;;;;;;0.00;0.00;;;;;;;;;;4981498;28;20609;-79
2022/11/27 02:37:40;;;;;;;0.00;0.00;;;;;;;;;;4980107;28;20232;-79
2022/11/27 02:40:11;;;;;;;0.00;0.00;;;;;;;;;;4976106;28;20660;-79
2022/11/27 02:42:42;;;;;;;0.00;0.00;;;;;;;;;;4959828;28;20211;-79
2022/11/27 02:45:13;;;;;;;0.00;0.00;;;;;;;;;;4976847;28;20208;-80
2022/11/27 02:47:44;;;;;;;0.00;0.00;;;;;;;;;;4981298;28;20610;-80
2022/11/27 02:50:15;;;;;;;0.00;0.00;;;;;;;;;;4982625;28;20228;-79
2022/11/27 02:52:46;;;;;;;0.00;0.00;;;;;;;;;;4983829;28;20265;-80
2022/11/27 02:55:16;;;;;;;0.00;0.00;;;;;;;;;;4981491;28;20200;-80
2022/11/27 02:57:46;;;;;;;0.00;0.00;;;;;;;;;;4981590;28;20217;-79
2022/11/27 03:00:17;;;;;;;0.00;0.00;;;;;;;;;;4982401;28;20205;-79
2022/11/27 03:02:47;;;;;;;0.00;0.00;;;;;;;;;;4979795;28;20237;-79
2022/11/27 03:05:19;;;;;;;0.00;0.00;;;;;;;;;;4979755;28;20655;-79
2022/11/27 03:07:50;;;;;;;0.00;0.00;;;;;;;;;;4979011;28;20263;-79
2022/11/27 03:10:21;;;;;;;0.00;0.00;;;;;;;;;;4980234;28;20245;-79
2022/11/27 03:12:50;;;;;;;0.00;0.00;;;;;;;;;;4982352;28;20244;-79
2022/11/27 03:15:22;;;;;;;0.00;0.00;;;;;;;;;;4982479;28;20205;-79
2022/11/27 03:17:54;;;;;;;0.00;0.00;;;;;;;;;;4981938;28;20658;-79
2022/11/27 03:20:24;;;;;;;0.00;0.00;;;;;;;;;;4983080;28;20235;-79
2022/11/27 03:22:54;;;;;;;0.00;0.00;;;;;;;;;;4979883;28;20260;-79
2022/11/27 03:25:23;;;;;;;0.00;0.00;;;;;;;;;;4981147;28;20579;-79
2022/11/27 03:27:54;;;;;;;0.00;0.00;;;;;;;;;;4977732;28;20683;-79
2022/11/27 03:30:25;;;;;;;0.00;0.00;;;;;;;;;;4979344;28;20275;-79
2022/11/27 03:35:39;;;;;;;0.00;0.00;;;;;;;;;;5010416;23;20225;-81
2022/11/27 03:38:08;;;;;;;0.00;0.00;;;;;;;;;;4998637;28;20202;-80
2022/11/27 03:40:40;;;;;;;0.00;0.00;;;;;;;;;;4997983;28;20214;-80
2022/11/27 03:43:14;;;;;;;0.00;0.00;;;;;;;;;;4998012;28;20232;-80
2022/11/27 03:45:52;;;;;;;0.10;0.10;;;;;;;;;;4994871;28;20204;-80
2022/11/27 03:48:23;;;;;;;0.00;0.00;;;;;;;;;;4979886;28;20196;-80
2022/11/27 03:51:01;;;;;;;0.00;0.00;;;;;;;;;;4987273;28;20220;-80
2022/11/27 03:53:34;;;;;;;0.00;0.00;;;;;;;;;;4982530;28;20232;-80
2022/11/27 03:56:06;;;;;;;0.10;0.10;;;;;;;;;;4979323;28;20237;-81
2022/11/27 03:58:41;;;;;;;0.10;0.10;;;;;;;;;;4980771;28;20269;-79
2022/11/27 04:01:11;;;;;;;0.00;0.00;;;;;;;;;;4982639;28;20235;-79
2022/11/27 04:03:40;;;;;;;0.00;0.00;;;;;;;;;;4988223;28;20232;-79
2022/11/27 04:06:10;;;;;;;0.00;0.00;;;;;;;;;;5002668;28;20204;-79
2022/11/27 04:08:39;;;;;;;0.00;0.00;;;;;;;;;;5002652;28;20218;-79
2022/11/27 04:11:08;;;;;;;0.00;0.00;;;;;;;;;;4983016;28;20678;-79
2022/11/27 04:13:37;;;;;;;0.00;0.00;;;;;;;;;;4983785;28;20217;-79
2022/11/27 04:16:06;;;;;;;0.00;0.00;;;;;;;;;;4991951;28;20693;-79
2022/11/27 04:18:36;;;;;;;0.00;0.00;;;;;;;;;;4981040;28;20208;-79
2022/11/27 04:21:05;;;;;;;0.00;0.00;;;;;;;;;;4988060;28;20578;-79
2022/11/27 04:23:34;;;;;;;0.00;0.00;;;;;;;;;;5005409;28;20234;-79
2022/11/27 04:26:02;;;;;;;0.00;0.00;;;;;;;;;;5011020;28;20204;-81
2022/11/27 04:28:31;;;;;;;0.00;0.00;;;;;;;;;;5011094;28;20303;-81
2022/11/27 04:31:00;;;;;;;0.00;0.00;;;;;;;;;;5008842;28;20217;-80
2022/11/27 04:33:29;;;;;;;0.00;0.00;;;;;;;;;;4998334;28;20229;-80
2022/11/27 04:35:59;;;;;;;0.00;0.00;;;;;;;;;;4992433;28;20214;-80
2022/11/27 04:38:28;;;;;;;0.00;0.00;;;;;;;;;;4989973;28;20209;-80
2022/11/27 04:40:57;;;;;;;0.00;0.00;;;;;;;;;;5010858;28;20203;-79
2022/11/27 04:43:27;;;;;;;0.00;0.00;;;;;;;;;;4996756;28;20237;-79
2022/11/27 04:45:56;;;;;;;0.00;0.00;;;;;;;;;;4991288;28;20232;-79
2022/11/27 04:48:25;;;;;;;0.00;0.00;;;;;;;;;;4992589;28;20211;-79
2022/11/27 04:50:55;;;;;;;0.00;0.00;;;;;;;;;;4991250;28;20221;-79
2022/11/27 04:53:25;;;;;;;0.00;0.00;;;;;;;;;;4992714;28;20284;-80
2022/11/27 04:55:54;;;;;;;0.00;0.00;;;;;;;;;;4990820;28;20200;-80
2022/11/27 04:58:23;;;;;;;0.00;0.00;;;;;;;;;;5012093;28;20201;-80
2022/11/27 05:00:52;;;;;;;0.00;0.00;;;;;;;;;;5010398;28;20209;-79
2022/11/27 05:03:22;;;;;;;0.00;0.00;;;;;;;;;;5010277;28;20228;-80
2022/11/27 05:05:55;;;;;;;0.00;0.00;;;;;;;;;;4992107;28;20236;-79
2022/11/27 05:08:25;;;;;;;0.00;0.00;;;;;;;;;;4992903;28;20634;-81
2022/11/27 05:11:01;;;;;;;0.10;0.10;;;;;;;;;;4991529;28;20268;-80
2022/11/27 05:13:30;;;;;;;0.00;0.00;;;;;;;;;;4985853;28;20246;-79
2022/11/27 05:15:59;;;;;;;0.00;0.00;;;;;;;;;;4988960;28;20209;-79
2022/11/27 05:18:28;;;;;;;0.03;0.03;;;;;;;;;;5009165;28;20663;-80
2022/11/27 05:20:58;;;;;;;0.00;0.00;;;;;;;;;;5007032;28;20218;-79
2022/11/27 05:23:28;;;;;;;0.00;0.00;;;;;;;;;;5005022;28;20279;-79
2022/11/27 05:26:02;;;;;;;0.00;0.00;;;;;;;;;;4990079;28;20291;-79
2022/11/27 05:28:31;;;;;;;0.00;0.00;;;;;;;;;;4990751;28;20205;-79
2022/11/27 05:30:59;;;;;;;0.00;0.00;;;;;;;;;;5007450;28;20217;-79
2022/11/27 05:33:28;;;;;;;0.00;0.00;;;;;;;;;;5008797;28;20229;-79
2022/11/27 05:35:57;;;;;;;0.00;0.00;;;;;;;;;;4997452;28;20704;-79
2022/11/27 05:38:28;;;;;;;0.00;0.00;;;;;;;;;;4982407;28;20219;-79
2022/11/27 05:40:57;;;;;;;0.00;0.00;;;;;;;;;;4981442;28;20209;-79
2022/11/27 05:43:25;;;;;;;0.00;0.00;;;;;;;;;;4995558;28;20639;-79
2022/11/27 05:45:54;;;;;;;0.10;0.10;;;;;;;;;;4983033;28;20281;-79
2022/11/27 05:48:23;;;;;;;0.00;0.00;;;;;;;;;;4997409;28;20282;-79
2022/11/27 05:50:51;;;;;;;0.00;0.00;;;;;;;;;;4996965;28;20657;-78
2022/11/27 05:53:23;;;;;;;0.00;0.00;;;;;;;;;;4996171;28;20252;-79
2022/11/27 05:55:53;;;;;;;0.10;0.10;;;;;;;;;;4996612;28;20234;-79
2022/11/27 05:58:21;;;;;;;0.00;0.00;;;;;;;;;;4983634;28;20237;-79
2022/11/27 06:00:50;;;;;;;0.00;0.00;;;;;;;;;;4977423;28;20301;-79
2022/11/27 06:03:18;;;;;;;0.00;0.00;;;;;;;;;;4986051;28;20225;-79
2022/11/27 06:05:47;;;;;;;0.10;0.10;;;;;;;;;;4988593;28;20224;-79
2022/11/27 06:08:15;;;;;;;0.00;0.00;;;;;;;;;;4985728;28;20275;-79
2022/11/27 06:10:44;;;;;;;0.00;0.00;;;;;;;;;;4985012;28;20240;-79
2022/11/27 06:13:14;;;;;;;0.00;0.00;;;;;;;;;;4982624;28;20290;-79
2022/11/27 06:15:43;;;;;;;0.00;0.00;;;;;;;;;;4985753;28;20626;-79
2022/11/27 06:18:12;;;;;;;0.00;0.00;;;;;;;;;;4977153;28;20260;-79
2022/11/27 06:20:41;;;;;;;0.00;0.00;;;;;;;;;;4976949;28;20686;-79
2022/11/27 06:23:13;;;;;;;0.00;0.00;;;;;;;;;;4976841;28;20228;-79
2022/11/27 06:25:41;;;;;;;0.00;0.00;;;;;;;;;;4993182;28;20212;-79
2022/11/27 06:28:10;;;;;;;0.00;0.00;;;;;;;;;;4984926;28;20651;-77
2022/11/27 06:30:40;;;;;;;0.00;0.00;;;;;;;;;;4976901;28;20234;-77
2022/11/27 06:33:08;;;;;;;0.00;0.00;;;;;;;;;;4985346;28;20221;-77
2022/11/27 06:35:37;;;;;;;0.00;0.00;;;;;;;;;;4995261;28;20275;-77
2022/11/27 06:38:05;;;;;;;0.00;0.00;;;;;;;;;;4987128;28;20243;-78
2022/11/27 06:40:34;;;;;;;0.00;0.00;;;;;;;;;;4996463;28;20239;-78
2022/11/27 06:43:02;;;;;;;0.00;0.00;;;;;;;;;;4976051;28;20257;-77
2022/11/27 06:45:31;;;;;;;0.00;0.00;;;;;;;;;;4976971;28;20268;-77
2022/11/27 06:48:00;;;;;;;0.00;0.00;;;;;;;;;;4976097;28;20213;-77
2022/11/27 06:50:29;;;;;;;0.00;0.00;;;;;;;;;;4981567;28;20259;-77
2022/11/27 06:52:57;;;;;;;0.10;0.10;;;;;;;;;;4978576;28;20273;-78
2022/11/27 06:55:26;;;;;;;0.00;0.00;;;;;;;;;;4992678;28;20572;-78
2022/11/27 06:57:54;;;;;;;0.00;0.00;;;;;;;;;;4976565;28;20695;-78
2022/11/27 07:00:23;;;;;;;0.00;0.00;;;;;;;;;;4976335;28;20247;-78
2022/11/27 07:02:54;;;;;;;0.00;0.00;;;;;;;;;;4997745;28;20628;-77
2022/11/27 07:05:25;;;;;;;0.00;0.00;;;;;;;;;;4975286;28;20206;-77
2022/11/27 07:07:53;;;;;;;0.10;0.10;;;;;;;;;;4975878;28;20241;-78
2022/11/27 07:10:22;;;;;;;0.00;0.00;;;;;;;;;;4977915;28;20304;-78
2022/11/27 07:12:50;;;;;;;0.00;0.00;;;;;;;;;;4976624;28;20323;-78
2022/11/27 07:15:19;;;;;;;0.00;0.00;;;;;;;;;;4976588;28;20236;-78
2022/11/27 07:17:47;;;;;;;0.00;0.00;;;;;;;;;;4976194;28;20237;-78
2022/11/27 07:20:16;;;;;;;0.00;0.00;;;;;;;;;;4985035;28;20670;-78
2022/11/27 07:22:46;;;;;;;0.00;0.00;;;;;;;;;;4977887;28;20673;-77
2022/11/27 07:25:14;;;;;;;0.00;0.00;;;;;;;;;;4991903;28;20240;-77
2022/11/27 07:27:43;;;;;;;0.00;0.00;;;;;;;;;;4987723;28;20244;-77
2022/11/27 07:30:12;;;;;;;0.10;0.10;;;;;;;;;;4992779;28;20235;-78
2022/11/27 07:32:40;;;;;;;0.07;0.07;;;;;;;;;;4993880;28;20231;-77
2022/11/27 07:35:09;;;;;;;0.10;0.10;;;;;;;;;;4979657;28;20263;-78
2022/11/27 07:37:38;;;;;;;0.00;0.00;;;;;;;;;;4975912;28;20234;-78
2022/11/27 07:40:09;;;;;;;0.00;0.00;;;;;;;;;;4974570;28;20228;-78
2022/11/27 07:42:37;;;;;;;0.00;0.00;;;;;;;;;;4975790;28;20256;-77
2022/11/27 07:45:07;;;;;;;0.00;0.00;;;;;;;;;;4987396;28;20716;-77
2022/11/27 07:47:35;;;;;;;0.00;0.00;;;;;;;;;;4986951;28;20263;-78
2022/11/27 07:50:06;;;;;;;0.07;0.07;;;;;;;;;;4980485;28;20233;-78
2022/11/27 07:52:34;;;;;;;0.10;0.10;;;;;;;;;;4977521;28;20694;-78
2022/11/27 07:55:10;;;;;;;0.00;0.00;;;;;;;;;;4975284;28;20196;-78
2022/11/27 07:57:39;;;;;;;0.03;0.03;;;;;;;;;;4975865;28;20198;-78
2022/11/27 08:00:08;;;;;;;0.00;0.00;;;;;;;;;;4979626;28;20209;-78
2022/11/27 08:02:37;;;;;;;0.00;0.00;;;;;;;;;;4973336;28;20249;-77
2022/11/27 08:05:06;;;;;;;0.00;0.00;;;;;;;;;;4974393;28;20622;-78
2022/11/27 08:07:40;;;;;;;0.00;0.00;;;;;;;;;;4975015;28;20200;-77
2022/11/27 08:10:09;;;;;;;0.00;0.00;;;;;;;;;;4989851;28;20205;-77
2022/11/27 08:12:39;;;;;;;0.00;0.00;;;;;;;;;;4989529;28;20241;-77
2022/11/27 08:15:08;;;;;;;0.00;0.00;;;;;;;;;;4979686;28;20742;-77
2022/11/27 08:17:36;;;;;;;0.00;0.00;;;;;;;;;;4988605;28;20725;-78
2022/11/27 08:20:06;;;;;;;0.00;0.00;;;;;;;;;;4992702;28;20205;-78
2022/11/27 08:22:34;;;;;;;0.00;0.00;;;;;;;;;;4974266;28;20202;-77
2022/11/27 08:25:03;;;;;;;0.00;0.00;;;;;;;;;;4984033;28;20241;-77
2022/11/27 08:27:32;;;;;;;0.00;0.00;;;;;;;;;;4981724;28;20288;-77
2022/11/27 08:30:02;;;;;;;0.00;0.00;;;;;;;;;;4977619;28;20225;-77
2022/11/27 08:32:30;;;;;;;0.00;0.00;;;;;;;;;;4974772;28;20651;-77
2022/11/27 08:34:59;;;;;;;0.00;0.00;;;;;;;;;;4982948;28;20308;-77
2022/11/27 08:37:27;;;;;;;0.00;0.00;;;;;;;;;;4979721;28;20674;-78
2022/11/27 08:39:55;;;;;;;0.00;0.00;;;;;;;;;;4994206;28;20251;-77
2022/11/27 08:42:24;;;;;;;0.00;0.00;;;;;;;;;;4991410;28;20287;-78
2022/11/27 08:44:53;;;;;;;0.00;0.00;;;;;;;;;;4990879;28;20621;-78
2022/11/27 08:47:23;;;;;;;0.00;0.00;;;;;;;;;;4980679;28;20233;-78
2022/11/27 08:49:51;;;;;;;0.00;0.00;;;;;;;;;;4987050;28;20268;-78
2022/11/27 08:52:20;;;;;;;0.00;0.00;;;;;;;;;;4974843;28;20652;-77
2022/11/27 08:54:49;;;;;;;0.00;0.00;;;;;;;;;;4978504;28;20750;-77
2022/11/27 08:57:24;;;;;;;0.00;0.00;;;;;;;;;;4974651;28;20557;-77
2022/11/27 08:59:53;;;;;;;0.00;0.00;;;;;;;;;;4973919;28;20214;-77
2022/11/27 09:02:23;;;;;;;0.00;0.00;;;;;;;;;;4976435;28;20233;-77
2022/11/27 09:04:51;;;;;;;0.00;0.00;;;;;;;;;;4972597;28;20222;-77
2022/11/27 09:07:20;;;;;;;0.00;0.00;;;;;;;;;;4974236;28;20205;-77
2022/11/27 09:09:49;;;;;;;0.00;0.00;;;;;;;;;;4973396;28;20210;-77
2022/11/27 09:12:17;;;;;;;0.00;0.00;;;;;;;;;;4977550;28;20205;-77
2022/11/27 09:14:46;;;;;;;0.00;0.00;;;;;;;;;;4985337;28;20677;-77
2022/11/27 09:17:15;;;;;;;0.00;0.00;;;;;;;;;;4973192;28;20572;-76
2022/11/27 09:19:46;;;;;;;0.00;0.00;;;;;;;;;;4977477;28;20212;-77
2022/11/27 09:22:15;;;;;;;0.00;0.00;;;;;;;;;;4983322;28;20220;-77
2022/11/27 09:24:44;;;;;;;0.00;0.00;;;;;;;;;;4980447;28;20234;-77
2022/11/27 09:27:12;;;;;;;0.00;0.00;;;;;;;;;;4977779;28;20210;-76
2022/11/27 09:29:41;;;;;;;0.00;0.00;;;;;;;;;;4989027;28;20230;-75
2022/11/27 09:32:10;;;;;;;0.00;0.00;;;;;;;;;;4990229;28;20205;-76
2022/11/27 09:34:38;;;;;;;0.00;0.00;;;;;;;;;;4634338;28;9999762;-76
2022/11/27 09:37:10;;;;;;;0.00;0.00;;;;;;;;;;4974871;28;20224;-76
2022/11/27 09:39:38;;;;;;;0.00;0.00;;;;;;;;;;4984491;28;20194;-76
2022/11/27 09:42:09;;;;;;;0.00;0.00;;;;;;;;;;4989375;28;20610;-76
2022/11/27 09:44:41;;;;;;;0.00;0.00;;;;;;;;;;4975418;28;20635;-78
2022/11/27 09:47:13;;;;;;;0.00;0.00;;;;;;;;;;4994667;28;20219;-77
2022/11/27 09:49:46;;;;;;;0.00;0.00;;;;;;;;;;4994061;28;20248;-76
2022/11/27 09:52:20;;;;;;;0.00;0.00;;;;;;;;;;4993062;28;20236;-76
2022/11/27 09:54:53;;;;;;;0.00;0.00;;;;;;;;;;4980752;28;20236;-76
2022/11/27 09:57:26;;;;;;;0.00;0.00;;;;;;;;;;5003715;28;20196;-76
2022/11/27 09:59:55;;;;;;;0.00;0.00;;;;;;;;;;4974537;28;20238;-76
2022/11/27 10:02:28;;;;;;;0.00;0.00;;;;;;;;;;4978835;28;20250;-75
2022/11/27 10:04:58;;;;;;;0.00;0.00;;;;;;;;;;4990904;28;20209;-76
2022/11/27 10:07:45;;;;;;;0.00;0.00;;;;;;;;;;4977443;28;20288;-75
2022/11/27 10:10:24;;;;;;;0.00;0.00;;;;;;;;;;4976653;28;20206;-76
2022/11/27 10:12:56;;;;;;;0.00;0.00;;;;;;;;;;4993141;28;20255;-76
2022/11/27 10:15:30;;;;;;;0.00;0.00;;;;;;;;;;4976893;28;20261;-75
2022/11/27 10:18:03;;;;;;;0.00;0.00;;;;;;;;;;4995931;28;20220;-76
2022/11/27 10:20:34;;;;;;;0.00;0.00;;;;;;;;;;4987645;28;20238;-75
2022/11/27 10:23:06;;;;;;;0.00;0.00;;;;;;;;;;4979594;28;20234;-76
2022/11/27 10:25:39;;;;;;;0.00;0.00;;;;;;;;;;4990226;28;20271;-76
2022/11/27 10:28:14;;;;;;;0.00;0.00;;;;;;;;;;4986471;28;20260;-76
2022/11/27 10:30:48;;;;;;;0.00;0.00;;;;;;;;;;4985396;28;20259;-75
2022/11/27 10:33:20;;;;;;;0.00;0.00;;;;;;;;;;4983235;28;20231;-76
2022/11/27 10:35:49;;;;;;;0.00;0.00;;;;;;;;;;4989270;28;20260;-76
2022/11/27 10:38:20;;;;;;;0.00;0.00;;;;;;;;;;4981265;28;20654;-75
2022/11/27 10:40:52;;;;;;;0.00;0.00;;;;;;;;;;4984210;28;20206;-76
2022/11/27 10:43:23;;;;;;;0.00;0.00;;;;;;;;;;4991857;28;20221;-75
2022/11/27 10:45:53;;;;;;;0.00;0.00;;;;;;;;;;4991553;28;20202;-76
2022/11/27 10:48:22;;;;;;;0.00;0.00;;;;;;;;;;4994743;28;20563;-74
2022/11/27 10:50:51;;;;;;;0.00;0.00;;;;;;;;;;4980759;28;20234;-75
2022/11/27 10:53:25;;;;;;;0.00;0.00;;;;;;;;;;4977991;28;20222;-75
2022/11/27 10:56:13;;;;;;;0.00;0.00;;;;;;;;;;4987597;28;20252;-75
2022/11/27 10:58:43;;;;;;;0.00;0.00;;;;;;;;;;4977544;28;20193;-75
2022/11/27 11:01:12;;;;;;;0.00;0.00;;;;;;;;;;4976958;28;20316;-75
2022/11/27 11:03:41;;;;;;;0.00;0.00;;;;;;;;;;4976250;28;20276;-75
2022/11/27 11:06:15;;;;;;;0.00;0.00;;;;;;;;;;4979585;28;20244;-75
2022/11/27 11:09:03;;;;;;;0.00;0.00;;;;;;;;;;4975990;28;20266;-75
2022/11/27 11:11:32;;;;;;;0.00;0.00;;;;;;;;;;4974903;28;20691;-76
2022/11/27 11:14:01;;;;;;;0.00;0.00;;;;;;;;;;4977726;28;20686;-76
2022/11/27 11:16:30;;;;;;;0.00;0.00;;;;;;;;;;4992887;28;20247;-75
2022/11/27 11:19:04;;;;;;;0.00;0.00;;;;;;;;;;4995685;28;20190;-76
2022/11/27 11:21:34;;;;;;;0.00;0.00;;;;;;;;;;4995742;28;20217;-76
2022/11/27 11:24:05;;;;;;;0.00;0.00;;;;;;;;;;4995222;28;20271;-75
2022/11/27 11:26:35;;;;;;;0.00;0.00;;;;;;;;;;4981160;28;20675;-74
2022/11/27 11:29:05;;;;;;;0.00;0.00;;;;;;;;;;4976546;28;20264;-75
2022/11/27 11:31:35;;;;;;;0.00;0.00;;;;;;;;;;4976857;28;20228;-75
2022/11/27 11:34:06;;;;;;;0.00;0.00;;;;;;;;;;4987760;28;20267;-75
2022/11/27 11:36:35;;;;;;;0.00;0.00;;;;;;;;;;4993388;28;20240;-75
2022/11/27 11:39:05;;;;;;;0.00;0.00;;;;;;;;;;4994206;28;20321;-76
2022/11/27 11:41:37;;;;;;;0.00;0.00;;;;;;;;;;4979385;28;20209;-76
2022/11/27 11:44:06;;;;;;;0.00;0.00;;;;;;;;;;4981967;28;20312;-75
2022/11/27 11:46:37;;;;;;;0.00;0.00;;;;;;;;;;4993624;28;20208;-75
2022/11/27 11:49:07;;;;;;;0.00;0.00;;;;;;;;;;4987598;28;20236;-76
2022/11/27 11:51:58;;;;;;;0.00;0.00;;;;;;;;;;4978288;28;20263;-75
2022/11/27 11:54:36;;;;;;;0.00;0.00;;;;;;;;;;4986586;28;20249;-75
2022/11/27 11:57:06;;;;;;;0.00;0.00;;;;;;;;;;4988598;28;20264;-76
2022/11/27 11:59:38;;;;;;;0.00;0.00;;;;;;;;;;4975493;28;20730;-75
2022/11/27 12:02:37;;;;;;;0.00;0.00;;;;;;;;;;4979227;28;20296;-76
2022/11/27 12:05:24;;;;;;;0.00;0.00;;;;;;;;;;4977112;28;20202;-75
2022/11/27 12:08:05;;;;;;;0.00;0.00;;;;;;;;;;4967189;28;20252;-75
2022/11/27 12:10:40;;;;;;;0.00;0.00;;;;;;;;;;4975004;28;20214;-75
2022/11/27 12:13:13;;;;;;;0.00;0.00;;;;;;;;;;4979435;28;20260;-75
2022/11/27 12:15:44;;;;;;;0.00;0.00;;;;;;;;;;4993046;28;20233;-76
2022/11/27 12:18:19;;;;;;;0.00;0.00;;;;;;;;;;4991969;28;20193;-75
2022/11/27 12:20:56;;;;;;;0.00;0.00;;;;;;;;;;4983662;28;20731;-75
2022/11/27 12:23:36;;;;;;;0.00;0.00;;;;;;;;;;4977723;28;20228;-76
2022/11/27 12:26:08;;;;;;;0.00;0.00;;;;;;;;;;4982231;28;20256;-75
2022/11/27 12:28:48;;;;;;;0.00;0.00;;;;;;;;;;4978936;28;20229;-75
2022/11/27 12:31:28;;;;;;;0.00;0.00;;;;;;;;;;4977595;28;20552;-75
2022/11/27 12:34:00;;;;;;;0.00;0.00;;;;;;;;;;4979032;28;20240;-75
2022/11/27 12:36:36;;;;;;;0.00;0.00;;;;;;;;;;4984226;28;20241;-76
2022/11/27 12:39:12;;;;;;;0.00;0.00;;;;;;;;;;4975370;28;20225;-75
2022/11/27 12:41:48;;;;;;;0.00;0.00;;;;;;;;;;4985904;28;20228;-75
2022/11/27 12:44:21;;;;;;;0.00;0.00;;;;;;;;;;4993877;28;20251;-75
2022/11/27 12:46:52;;;;;;;0.00;0.00;;;;;;;;;;4982469;28;20202;-76
2022/11/27 12:49:22;;;;;;;0.00;0.00;;;;;;;;;;4994277;28;20248;-76
2022/11/27 12:51:54;;;;;;;0.00;0.00;;;;;;;;;;4984021;28;20248;-75
2022/11/27 12:54:26;;;;;;;0.00;0.00;;;;;;;;;;4979956;28;20707;-75
2022/11/27 12:56:57;;;;;;;0.00;0.00;;;;;;;;;;4994257;28;20244;-75
2022/11/27 12:59:29;;;;;;;0.00;0.00;;;;;;;;;;4993174;28;20596;-75
2022/11/27 13:02:02;;;;;;;0.00;0.00;;;;;;;;;;4984394;28;20330;-75
2022/11/27 13:04:33;;;;;;;0.00;0.00;;;;;;;;;;4975662;28;20593;-75
2022/11/27 13:07:05;;;;;;;0.00;0.00;;;;;;;;;;4984853;28;20237;-75
2022/11/27 13:09:40;;;;;;;0.00;0.00;;;;;;;;;;4984839;28;20201;-75
2022/11/27 13:12:14;;;;;;;0.00;0.00;;;;;;;;;;4988883;28;20232;-75
2022/11/27 13:14:43;;;;;;;0.00;0.00;;;;;;;;;;4985674;28;20367;-76
2022/11/27 13:17:19;;;;;;;0.00;0.00;;;;;;;;;;4976623;28;20216;-74
2022/11/27 13:19:50;;;;;;;0.00;0.00;;;;;;;;;;4989081;28;20248;-75
2022/11/27 13:22:26;;;;;;;0.00;0.00;;;;;;;;;;4979218;28;20240;-75
2022/11/27 13:24:55;;;;;;;0.00;0.00;;;;;;;;;;4979363;28;20205;-75
2022/11/27 13:27:27;;;;;;;0.00;0.00;;;;;;;;;;4983534;28;20655;-76
2022/11/27 13:29:57;;;;;;;0.00;0.00;;;;;;;;;;4974855;28;20228;-75
2022/11/27 13:32:26;;;;;;;0.00;0.00;;;;;;;;;;4974496;28;20210;-75
2022/11/27 13:34:56;;;;;;;0.00;0.00;;;;;;;;;;4974460;28;20687;-75
2022/11/27 13:37:29;;;;;;;0.00;0.00;;;;;;;;;;4979631;28;20351;-75
2022/11/27 13:40:02;;;;;;;0.00;0.00;;;;;;;;;;5016964;28;20243;-75
2022/11/27 13:42:34;;;;;;;0.00;0.00;;;;;;;;;;5012301;28;20197;-75
2022/11/27 13:45:03;;;;;;;0.00;0.00;;;;;;;;;;4977104;28;20205;-75
2022/11/27 13:47:38;;;;;;;0.00;0.00;;;;;;;;;;4976020;28;20236;-76
2022/11/27 13:50:09;;;;;;;0.00;0.00;;;;;;;;;;4977778;28;20198;-75
2022/11/27 13:52:38;;;;;;;0.00;0.00;;;;;;;;;;4978010;28;20625;-75
2022/11/27 13:55:08;;;;;;;0.00;0.00;;;;;;;;;;4983444;28;20279;-75
2022/11/27 13:57:38;;;;;;;0.00;0.00;;;;;;;;;;4980891;28;20225;-75
2022/11/27 14:00:08;;;;;;;0.00;0.00;;;;;;;;;;4978833;28;20234;-75
2022/11/27 14:02:44;;;;;;;0.00;0.00;;;;;;;;;;4990478;28;20233;-75
2022/11/27 14:05:13;;;;;;;0.00;0.00;;;;;;;;;;4987492;28;20236;-75
2022/11/27 14:07:43;;;;;;;0.00;0.00;;;;;;;;;;4980459;28;20226;-75
2022/11/27 14:10:15;;;;;;;0.00;0.00;;;;;;;;;;4996156;28;20208;-75
2022/11/27 14:12:53;;;;;;;0.00;0.00;;;;;;;;;;4982487;28;20285;-75
2022/11/27 14:15:22;;;;;;;0.00;0.00;;;;;;;;;;4986667;28;20216;-75
2022/11/27 14:17:52;;;;;;;0.00;0.00;;;;;;;;;;4991504;28;20261;-75
2022/11/27 14:20:27;;;;;;;0.00;0.00;;;;;;;;;;4987022;28;20990;-75
2022/11/27 14:22:57;;;;;;;0.00;0.00;;;;;;;;;;4977082;28;20319;-75
2022/11/27 14:25:39;;;;;;;0.00;0.00;;;;;;;;;;4980287;28;20202;-75
2022/11/27 14:28:14;;;;;;;0.00;0.00;;;;;;;;;;4977199;28;20233;-75
2022/11/27 14:30:46;;;;;;;0.00;0.00;;;;;;;;;;4979163;28;20659;-74
2022/11/27 14:33:19;;;;;;;0.00;0.00;;;;;;;;;;4995868;28;20237;-75
2022/11/27 14:35:50;;;;;;;0.00;0.00;;;;;;;;;;4996964;28;20201;-75
2022/11/27 14:38:19;;;;;;;0.00;0.00;;;;;;;;;;4982749;28;20241;-75
2022/11/27 14:40:48;;;;;;;0.00;0.00;;;;;;;;;;4980665;28;20205;-75
2022/11/27 14:43:19;;;;;;;0.00;0.00;;;;;;;;;;4981958;28;20279;-75
2022/11/27 14:45:49;;;;;;;0.00;0.00;;;;;;;;;;4974654;28;20636;-75
2022/11/27 14:48:20;;;;;;;0.00;0.00;;;;;;;;;;4974295;28;21097;-75
2022/11/27 14:50:49;;;;;;;0.00;0.00;;;;;;;;;;4987607;28;20260;-75
2022/11/27 14:53:20;;;;;;;0.00;0.00;;;;;;;;;;4993831;28;20714;-75
2022/11/27 14:55:49;;;;;;;0.00;0.00;;;;;;;;;;4993787;28;20263;-75
2022/11/27 14:58:21;;;;;;;0.00;0.00;;;;;;;;;;4993630;28;20674;-75
2022/11/27 15:00:51;;;;;;;0.00;0.00;;;;;;;;;;4982376;28;20236;-75
2022/11/27 15:03:21;;;;;;;0.00;0.00;;;;;;;;;;4974137;28;20261;-75
2022/11/27 15:05:54;;;;;;;0.00;0.00;;;;;;;;;;4991344;28;20283;-75
2022/11/27 15:08:22;;;;;;;0.00;0.00;;;;;;;;;;4978299;28;20637;-75
2022/11/27 15:10:53;;;;;;;0.00;0.00;;;;;;;;;;4973370;28;20302;-75
2022/11/27 15:13:25;;;;;;;0.00;0.00;;;;;;;;;;4979376;28;20229;-75
2022/11/27 15:15:55;;;;;;;0.00;0.00;;;;;;;;;;4994241;28;20248;-75
2022/11/27 15:18:24;;;;;;;0.00;0.00;;;;;;;;;;4981561;28;20222;-75
2022/11/27 15:20:53;;;;;;;0.00;0.00;;;;;;;;;;4974100;28;20241;-76
2022/11/27 15:23:23;;;;;;;0.00;0.00;;;;;;;;;;4974091;28;20735;-75
2022/11/27 15:25:53;;;;;;;0.00;0.00;;;;;;;;;;4990262;28;20677;-75
2022/11/27 15:28:30;;;;;;;0.00;0.00;;;;;;;;;;4993120;28;20228;-75
2022/11/27 15:30:59;;;;;;;0.00;0.00;;;;;;;;;;4992759;28;20204;-75
2022/11/27 15:33:28;;;;;;;0.00;0.00;;;;;;;;;;4974687;28;20249;-75
2022/11/27 15:36:14;;;;;;;0.00;0.00;;;;;;;;;;4984754;28;20295;-75
2022/11/27 15:38:44;;;;;;;0.00;0.00;;;;;;;;;;4992595;28;20245;-75
2022/11/27 15:41:23;;;;;;;0.00;0.00;;;;;;;;;;4993290;28;20260;-75
2022/11/27 15:43:54;;;;;;;0.00;0.00;;;;;;;;;;4985360;28;20245;-76
2022/11/27 15:46:24;;;;;;;0.00;0.00;;;;;;;;;;4981987;28;20202;-76
2022/11/27 15:48:53;;;;;;;0.00;0.00;;;;;;;;;;4989383;28;20204;-75
2022/11/27 15:51:22;;;;;;;0.00;0.00;;;;;;;;;;4993346;28;20216;-76